MUNG/GER METAR and TAF weather

Enter ICAO airport designator
Station Type Date Time Source
MUNG METAR 2022/02/19 11:50 UTC NOAA

MUNG 191150Z 03004KT 8000 SCT010 22/22 Q1020


Station Type Date Time Source
MUNG Decoded METAR 2022/02/19 11:50 UTC NOAA

Nueva Gerona, Isla De Pinos, Cuba (MUNG) 21-50N 082-47W 23M
Feb 19, 2022 - 06:50 AM EST / 2022.02.19 1150 UTC
Wind: from the NNE (030 degrees) at 5 MPH (4 KT):0
Visibility: 4 mile(s):0
Sky conditions: partly cloudy
Temperature: 71 F (22 C)
Dew Point: 71 F (22 C)
Relative Humidity: 100%
Pressure (altimeter): 30.12 in. Hg (1020 hPa)
ob: MUNG 191150Z 03004KT 8000 SCT010 22/22 Q1020
cycle: 12

Station Type Date Time Source
MUNG TAF 2022/08/12 12:00 UTC NOAA

TAF MUNG 121100Z 1212/1224 10007KT 9000 SCT020
TEMPO 1220/1224 SCT018CB BKN020

Example: see airport list